Accueil
METAR-TAF:

METAR-TAF

Aéroports :

Aéroport de Pérouse-Sant'Egidio

Pérouse, Italie

latitude: 43-05N, longitude: 012-30E, altitude: 208 m

Observation

Le bulletin a été fait il y a 1 heure et 4 minutes, à 06:50 UTC
Vent 3 kt de nord-est
Température 5°C
Humidité 93%
Pression 1024 hPa
Visibilité: 9000 m
Quelques nuages à une hauteur de 3000 ft
Nuages fragmentés à une hauteur de 5000 ft

METAR: LIRZ 060650Z 05003KT 9000 FEW030 BKN050 05/04 Q1024

Heure: 08:54 (07:54 UTC)

Prévision

Le bulletin a été fait il y a 2 heures et 54 minutes, à 05:00 UTC
Prévision valable du 06 à 06 UTC au 07 à 06 UTC
Vent 5 kt de direction variable
Visibilité 10 km ou plus
Nuages épars à une hauteur de 4000 ft
Temporairement
du 06 à 06 UTC au 06 à 09 UTC
averses de pluie
Temporairement
du 06 à 18 UTC au 07 à 03 UTC
averses de pluie

TAF: LIRZ 060500Z 0606/0706 VRB05KT 9999 SCT040 TEMPO 0606/0609 SHRA TEMPO 0618/0703 SHRA

Observations et prévisions météorologiques de plus de 4000 aéroports (messages METAR et TAF).

Les stations disponibles sont représentées par des disques jaunes et rouges sur la carte.

Passer la souris dessus pour voir le nom de la station.

Cliquer dessus pour voir les observations et prévisions météorologiques.

Pour changer de carte: cliquez sur les boutons verts avec une croix noire pour zoomer, sur le bouton vert avec un tiret pour effectuer un zoom arrière, ou sur les flèches vertes pour les cartes adjacentes.


METAR-TAF: